createdAt,value
2023-04-01T00:00:56.862Z,98511.33
2023-04-01T00:01:59.907Z,98504.38
2023-04-01T00:03:03.202Z,98504.66
2023-04-01T00:04:06.490Z,98506.70
2023-04-01T00:05:11.378Z,98503.92
2023-04-01T00:06:15.982Z,98504.68
2023-04-01T00:07:18.867Z,98495.63
2023-04-01T00:08:21.853Z,98494.81
2023-04-01T00:09:24.836Z,98498.43
2023-04-01T00:10:32.737Z,98491.00
2023-04-01T00:11:37.954Z,98492.23
2023-04-01T00:12:41.731Z,98486.26
2023-04-01T00:13:44.759Z,98484.45
2023-04-01T00:14:47.665Z,98483.29
2023-04-01T00:15:50.890Z,98478.83
2023-04-01T00:16:53.917Z,98486.43
2023-04-01T00:17:57.037Z,98484.65
2023-04-01T00:19:01.067Z,98475.14
2023-04-01T00:20:06.899Z,98473.17
2023-04-01T00:21:09.896Z,98467.00
2023-04-01T00:22:13.112Z,98469.70
2023-04-01T00:23:16.108Z,98469.23
2023-04-01T00:24:19.154Z,98467.36
2023-04-01T00:25:23.105Z,98473.13
2023-04-01T00:26:26.298Z,98473.08
2023-04-01T00:27:29.245Z,98470.90
2023-04-01T00:28:32.504Z,98478.06
2023-04-01T00:29:35.727Z,98482.71
2023-04-01T00:30:38.810Z,98479.86
2023-04-01T00:31:41.736Z,98479.87
2023-04-01T00:32:44.847Z,98474.80
2023-04-01T00:33:47.837Z,98477.74
2023-04-01T00:34:54.114Z,98479.59
2023-04-01T00:35:57.273Z,98478.54
2023-04-01T00:37:00.229Z,98471.05
2023-04-01T00:38:04.209Z,98473.70
2023-04-01T00:39:07.173Z,98472.11
2023-04-01T00:40:26.022Z,98473.55
2023-04-01T00:41:29.165Z,98471.89
2023-04-01T00:42:32.601Z,98477.27
2023-04-01T00:43:36.072Z,98480.90
2023-04-01T00:44:39.628Z,98482.63
2023-04-01T00:45:44.601Z,98482.09
2023-04-01T00:46:48.386Z,98481.39
2023-04-01T00:47:51.558Z,98477.16
2023-04-01T00:48:56.947Z,98477.80
2023-04-01T00:50:00.877Z,98484.63
2023-04-01T00:51:20.043Z,98480.39
2023-04-01T00:52:26.671Z,98471.77
2023-04-01T00:53:32.402Z,98476.91
2023-04-01T00:54:37.064Z,98479.77
2023-04-01T00:55:44.910Z,98476.24
2023-04-01T00:56:57.275Z,98476.98
2023-04-01T00:58:03.140Z,98469.88
2023-04-01T00:59:12.699Z,98471.91
2023-04-01T01:00:16.961Z,98467.14
2023-04-01T01:01:23.374Z,98475.13
2023-04-01T01:02:26.988Z,98468.04
2023-04-01T01:03:30.071Z,98471.23
2023-04-01T01:04:34.915Z,98471.30
2023-04-01T01:06:22.865Z,98466.01
2023-04-01T01:07:41.527Z,98465.30
2023-04-01T01:09:16.881Z,98461.91
2023-04-01T01:10:36.072Z,98461.12
2023-04-01T01:11:45.325Z,98460.63
2023-04-01T01:13:00.266Z,98468.10
2023-04-01T01:14:15.033Z,98463.69
2023-04-01T01:15:26.568Z,98459.22
2023-04-01T01:16:33.404Z,98459.45
2023-04-01T01:17:52.939Z,98469.36
2023-04-01T01:19:06.052Z,98461.77
2023-04-01T01:20:35.098Z,98464.30
2023-04-01T01:21:49.806Z,98462.41
2023-04-01T01:23:29.987Z,98463.21
2023-04-01T01:24:32.832Z,98466.04
2023-04-01T01:26:00.519Z,98469.40
2023-04-01T01:27:17.559Z,98463.34
2023-04-01T01:28:45.734Z,98466.45
2023-04-01T01:30:10.528Z,98463.34
2023-04-01T01:31:17.568Z,98467.59
2023-04-01T01:33:05.800Z,98470.19
2023-04-01T01:34:33.118Z,98464.14
2023-04-01T01:35:51.083Z,98468.39
2023-04-01T01:37:03.203Z,98467.27
2023-04-01T01:38:16.997Z,98469.91
2023-04-01T01:39:31.363Z,98468.19
2023-04-01T01:40:41.061Z,98472.48
2023-04-01T01:41:45.023Z,98471.75
2023-04-01T01:42:52.950Z,98479.55
2023-04-01T01:43:59.805Z,98478.48
2023-04-01T01:45:05.099Z,98475.25
2023-04-01T01:46:18.716Z,98473.20
2023-04-01T01:47:23.751Z,98470.77
2023-04-01T01:48:28.861Z,98479.45
2023-04-01T01:49:34.997Z,98478.70
2023-04-01T01:50:40.343Z,98474.58
2023-04-01T01:51:44.315Z,98475.29
2023-04-01T01:52:48.775Z,98474.70
2023-04-01T01:53:51.758Z,98469.83
2023-04-01T01:54:59.505Z,98477.29
2023-04-01T01:56:13.677Z,98468.55
2023-04-01T01:57:20.853Z,98469.77
2023-04-01T01:58:27.084Z,98469.30
2023-04-01T01:59:31.354Z,98473.67
2023-04-01T02:00:36.271Z,98474.96
2023-04-01T02:01:44.089Z,98473.28
2023-04-01T02:02:49.595Z,98464.96
2023-04-01T02:03:54.619Z,98464.54
2023-04-01T02:04:57.891Z,98461.50
2023-04-01T02:06:02.864Z,98461.30
2023-04-01T02:07:10.317Z,98459.83
2023-04-01T02:08:19.127Z,98462.83
2023-04-01T02:09:22.161Z,98451.40
2023-04-01T02:10:28.195Z,98457.41
2023-04-01T02:11:37.023Z,98458.13
2023-04-01T02:12:43.267Z,98454.14
2023-04-01T02:13:55.714Z,98458.36
2023-04-01T02:15:10.261Z,98452.95
2023-04-01T02:16:22.334Z,98452.42
2023-04-01T02:17:28.901Z,98454.20
2023-04-01T02:18:36.245Z,98461.14
2023-04-01T02:19:48.750Z,98458.23
2023-04-01T02:20:52.824Z,98451.79
2023-04-01T02:22:03.089Z,98456.38
2023-04-01T02:23:09.082Z,98452.02
2023-04-01T02:24:16.347Z,98454.37
2023-04-01T02:25:24.544Z,98459.65
2023-04-01T02:26:28.469Z,98456.45
2023-04-01T02:27:31.973Z,98453.62
2023-04-01T02:28:39.483Z,98449.08
2023-04-01T02:29:42.552Z,98449.44
2023-04-01T02:30:45.788Z,98443.14
2023-04-01T02:31:51.662Z,98447.55
2023-04-01T02:32:56.578Z,98444.89
2023-04-01T02:33:59.942Z,98439.67
2023-04-01T02:35:06.894Z,98443.64
2023-04-01T02:36:17.595Z,98440.73
2023-04-01T02:37:21.245Z,98437.42
2023-04-01T02:38:24.535Z,98441.23
2023-04-01T02:39:27.792Z,98442.91
2023-04-01T02:40:30.833Z,98436.73
2023-04-01T02:41:40.218Z,98439.84
2023-04-01T02:42:43.700Z,98436.63
2023-04-01T02:43:46.673Z,98438.60
2023-04-01T02:44:50.109Z,98438.70
2023-04-01T02:45:53.404Z,98440.59
2023-04-01T02:46:56.341Z,98438.34
2023-04-01T02:47:59.312Z,98445.77
2023-04-01T02:49:03.772Z,98442.52
2023-04-01T02:50:08.534Z,98440.37
2023-04-01T02:51:11.482Z,98443.35
2023-04-01T02:52:14.568Z,98448.55
2023-04-01T02:53:18.130Z,98452.59
2023-04-01T02:54:21.257Z,98453.76
2023-04-01T02:55:24.495Z,98453.05
2023-04-01T02:56:27.609Z,98454.44
2023-04-01T02:57:30.811Z,98453.91
2023-04-01T02:58:33.755Z,98455.73
2023-04-01T02:59:36.721Z,98461.02
2023-04-01T03:00:39.621Z,98459.35
2023-04-01T03:01:42.858Z,98455.83
2023-04-01T03:02:46.061Z,98457.46
2023-04-01T03:03:49.463Z,98460.09
2023-04-01T03:04:52.471Z,98456.64
2023-04-01T03:05:57.343Z,98460.48
2023-04-01T03:07:00.271Z,98460.70
2023-04-01T03:08:04.578Z,98461.59
2023-04-01T03:09:07.472Z,98465.52
2023-04-01T03:10:10.924Z,98455.81
2023-04-01T03:11:14.566Z,98461.83
2023-04-01T03:12:17.832Z,98457.76
2023-04-01T03:13:24.013Z,98461.02
2023-04-01T03:14:27.415Z,98461.30
2023-04-01T03:15:30.751Z,98463.77
2023-04-01T03:16:33.955Z,98462.48
2023-04-01T03:17:38.724Z,98469.68
2023-04-01T03:18:41.949Z,98467.15
2023-04-01T03:19:44.807Z,98467.15
2023-04-01T03:20:48.004Z,98467.77
2023-04-01T03:21:51.052Z,98469.88
2023-04-01T03:22:53.888Z,98469.58
2023-04-01T03:23:56.774Z,98467.23
2023-04-01T03:24:59.653Z,98469.36
2023-04-01T03:26:02.578Z,98466.30
2023-04-01T03:27:05.562Z,98466.17
2023-04-01T03:28:08.480Z,98466.71
2023-04-01T03:29:11.699Z,98466.94
2023-04-01T03:30:15.402Z,98465.38
2023-04-01T03:31:23.927Z,98476.72
2023-04-01T03:32:28.889Z,98474.20
2023-04-01T03:33:32.348Z,98474.61
2023-04-01T03:34:35.725Z,98472.23
2023-04-01T03:35:39.017Z,98474.81
2023-04-01T03:36:42.367Z,98476.41
2023-04-01T03:37:45.479Z,98471.69
2023-04-01T03:38:48.474Z,98477.48
2023-04-01T03:39:53.877Z,98474.05
2023-04-01T03:40:56.824Z,98478.35
2023-04-01T03:42:00.073Z,98475.23
2023-04-01T03:43:03.124Z,98478.89
2023-04-01T03:44:06.514Z,98475.95
2023-04-01T03:45:10.350Z,98477.39
2023-04-01T03:46:18.392Z,98479.88
2023-04-01T03:47:21.308Z,98484.65
2023-04-01T03:48:24.499Z,98481.90
2023-04-01T03:49:27.674Z,98480.95
2023-04-01T03:50:31.193Z,98482.42
2023-04-01T03:51:35.778Z,98482.61
2023-04-01T03:52:38.684Z,98482.41
2023-04-01T03:53:41.904Z,98484.28
2023-04-01T03:54:44.814Z,98486.19
2023-04-01T03:55:48.147Z,98488.82
2023-04-01T03:56:52.134Z,98488.13
2023-04-01T03:57:55.189Z,98490.37
2023-04-01T03:58:58.253Z,98494.18
2023-04-01T04:00:01.563Z,98493.84
2023-04-01T04:01:13.865Z,98490.81
2023-04-01T04:02:16.988Z,98495.58
2023-04-01T04:03:21.303Z,98497.78
2023-04-01T04:04:24.598Z,98499.89
2023-04-01T04:05:28.448Z,98498.63
2023-04-01T04:06:31.866Z,98500.06
2023-04-01T04:07:36.210Z,98506.27
2023-04-01T04:08:42.214Z,98509.59
2023-04-01T04:09:45.424Z,98508.49
2023-04-01T04:10:49.101Z,98501.55
2023-04-01T04:11:52.637Z,98506.96
2023-04-01T04:12:56.442Z,98513.31
2023-04-01T04:14:00.743Z,98509.86
2023-04-01T04:15:04.002Z,98511.42
2023-04-01T04:16:07.398Z,98508.33
2023-04-01T04:17:17.236Z,98507.41
2023-04-01T04:18:20.861Z,98505.31
2023-04-01T04:19:24.059Z,98511.50
2023-04-01T04:20:27.279Z,98515.70
2023-04-01T04:21:30.480Z,98515.86
2023-04-01T04:22:33.524Z,98511.43
2023-04-01T04:23:38.284Z,98515.23
2023-04-01T04:24:41.333Z,98515.52
2023-04-01T04:26:07.665Z,98515.46
2023-04-01T04:27:10.769Z,98516.13
2023-04-01T04:28:19.678Z,98530.38
2023-04-01T04:29:23.900Z,98531.08
2023-04-01T04:30:27.202Z,98528.16
2023-04-01T04:31:30.280Z,98535.12
2023-04-01T04:32:34.471Z,98530.15
2023-04-01T04:33:38.018Z,98526.92
2023-04-01T04:34:41.081Z,98529.85
2023-04-01T04:35:44.164Z,98529.05
2023-04-01T04:36:47.211Z,98528.35
2023-04-01T04:37:51.258Z,98524.30
2023-04-01T04:38:54.769Z,98525.64
2023-04-01T04:39:57.752Z,98527.83
2023-04-01T04:41:01.363Z,98526.17
2023-04-01T04:42:04.476Z,98532.08
2023-04-01T04:43:07.568Z,98525.20
2023-04-01T04:44:10.418Z,98527.98
2023-04-01T04:45:13.779Z,98530.23
2023-04-01T04:46:21.342Z,98532.84
2023-04-01T04:47:25.740Z,98524.39
2023-04-01T04:48:28.722Z,98528.41
2023-04-01T04:49:32.168Z,98521.52
2023-04-01T04:50:36.296Z,98520.89
2023-04-01T04:51:39.339Z,98527.52
2023-04-01T04:52:42.523Z,98524.13
2023-04-01T04:53:46.007Z,98526.71
2023-04-01T04:54:49.081Z,98526.23
2023-04-01T04:55:52.073Z,98522.95
2023-04-01T04:57:08.308Z,98522.93
2023-04-01T04:58:21.318Z,98527.85
2023-04-01T04:59:24.310Z,98533.51
2023-04-01T05:00:47.732Z,98529.19
2023-04-01T05:02:03.931Z,98531.04
2023-04-01T05:03:07.215Z,98535.89
2023-04-01T05:04:10.781Z,98533.45
2023-04-01T05:05:13.826Z,98532.75
2023-04-01T05:06:17.876Z,98540.52
2023-04-01T05:07:20.980Z,98533.71
2023-04-01T05:08:24.406Z,98530.54
2023-04-01T05:09:27.620Z,98538.17
2023-04-01T05:10:31.798Z,98529.13
2023-04-01T05:11:34.748Z,98529.98
2023-04-01T05:12:39.781Z,98534.05
2023-04-01T05:13:45.996Z,98528.73
2023-04-01T05:14:48.869Z,98536.87
2023-04-01T05:15:52.175Z,98539.39
2023-04-01T05:16:55.983Z,98532.05
2023-04-01T05:17:58.915Z,98537.06
2023-04-01T05:19:02.635Z,98540.71
2023-04-01T05:20:06.456Z,98534.58
2023-04-01T05:21:13.652Z,98539.05
2023-04-01T05:22:16.989Z,98545.50
2023-04-01T05:23:22.228Z,98541.77
2023-04-01T05:24:25.140Z,98539.84
2023-04-01T05:25:29.124Z,98542.13
2023-04-01T05:26:33.695Z,98536.59
2023-04-01T05:27:36.756Z,98534.40
2023-04-01T05:28:40.511Z,98533.69
2023-04-01T05:29:43.433Z,98541.20
2023-04-01T05:31:01.980Z,98538.15
2023-04-01T05:32:10.781Z,98534.66
2023-04-01T05:33:14.280Z,98533.49
2023-04-01T05:34:17.483Z,98530.74
2023-04-01T05:35:20.378Z,98530.80
2023-04-01T05:36:23.514Z,98534.16
2023-04-01T05:37:26.704Z,98532.31
2023-04-01T05:38:30.646Z,98530.64
2023-04-01T05:39:37.747Z,98534.98
2023-04-01T05:40:41.168Z,98539.34
2023-04-01T05:41:44.202Z,98538.20
2023-04-01T05:42:47.186Z,98540.26
2023-04-01T05:43:50.927Z,98538.55
2023-04-01T05:45:12.483Z,98536.27
2023-04-01T05:46:38.576Z,98534.77
2023-04-01T05:48:02.365Z,98541.57
2023-04-01T05:49:08.100Z,98541.13
2023-04-01T05:50:13.463Z,98539.21
2023-04-01T05:51:16.816Z,98541.21
2023-04-01T05:52:19.704Z,98539.74
2023-04-01T05:53:23.291Z,98547.87
2023-04-01T05:54:26.329Z,98542.30
2023-04-01T05:55:29.351Z,98544.77
2023-04-01T05:56:32.353Z,98543.98
2023-04-01T05:57:35.911Z,98541.48
2023-04-01T05:58:55.253Z,98539.03
2023-04-01T05:59:59.125Z,98547.92
2023-04-01T06:01:16.188Z,98542.77
2023-04-01T06:02:20.530Z,98535.59
2023-04-01T06:03:23.674Z,98547.80
2023-04-01T06:04:33.142Z,98548.84
2023-04-01T06:05:44.021Z,98540.19
2023-04-01T06:06:47.131Z,98540.56
2023-04-01T06:08:00.403Z,98544.14
2023-04-01T06:09:15.213Z,98540.47
2023-04-01T06:10:33.391Z,98541.44
2023-04-01T06:11:42.155Z,98537.63
2023-04-01T06:13:22.939Z,98542.46
2023-04-01T06:14:32.690Z,98540.55
2023-04-01T06:15:55.548Z,98544.69
2023-04-01T06:17:06.097Z,98547.16
2023-04-01T06:18:26.840Z,98549.56
2023-04-01T06:19:53.996Z,98549.73
2023-04-01T06:21:08.639Z,98551.02
2023-04-01T06:22:30.557Z,98552.27
2023-04-01T06:23:41.522Z,98552.47
2023-04-01T06:25:06.894Z,98550.86
2023-04-01T06:26:25.743Z,98552.11
2023-04-01T06:27:49.884Z,98551.30
2023-04-01T06:29:29.805Z,98548.66
2023-04-01T06:30:36.133Z,98553.42
2023-04-01T06:32:06.288Z,98558.25
2023-04-01T06:33:29.989Z,98550.96
2023-04-01T06:34:39.424Z,98551.23
2023-04-01T06:36:12.735Z,98554.45
2023-04-01T06:37:38.958Z,98552.77
2023-04-01T06:39:23.400Z,98551.48
2023-04-01T06:40:42.297Z,98551.91
2023-04-01T06:42:00.809Z,98550.71
2023-04-01T06:43:22.722Z,98553.69
2023-04-01T06:45:13.378Z,98554.52
2023-04-01T06:46:34.768Z,98553.55
2023-04-01T06:48:12.334Z,98555.39
2023-04-01T06:49:54.103Z,98557.30
2023-04-01T06:51:28.198Z,98555.21
2023-04-01T06:53:18.885Z,98553.58
2023-04-01T06:54:45.952Z,98558.96
2023-04-01T06:56:11.788Z,98558.67
2023-04-01T06:57:48.322Z,98555.89
2023-04-01T06:58:57.050Z,98557.62
2023-04-01T07:00:05.792Z,98557.42
2023-04-01T07:01:13.885Z,98559.31
2023-04-01T07:02:24.641Z,98559.55
2023-04-01T07:03:37.312Z,98561.23
2023-04-01T07:04:48.249Z,98557.77
2023-04-01T07:05:52.289Z,98563.24
2023-04-01T07:07:02.854Z,98570.30
2023-04-01T07:08:11.109Z,98559.90
2023-04-01T07:09:21.001Z,98562.38
2023-04-01T07:10:54.590Z,98562.33
2023-04-01T07:12:43.995Z,98562.98
2023-04-01T07:14:16.111Z,98563.58
2023-04-01T07:16:04.183Z,98564.80
2023-04-01T07:17:17.092Z,98564.73
2023-04-01T07:18:26.896Z,98557.70
2023-04-01T07:19:48.991Z,98557.95
2023-04-01T07:20:53.058Z,98553.56
2023-04-01T07:21:59.584Z,98561.39
2023-04-01T07:23:27.275Z,98556.03
2023-04-01T07:24:49.590Z,98554.92
2023-04-01T07:25:56.913Z,98562.38
2023-04-01T07:27:09.945Z,98557.66
2023-04-01T07:28:17.727Z,98557.58
2023-04-01T07:29:24.434Z,98557.05
2023-04-01T07:30:44.090Z,98566.04
2023-04-01T07:32:22.651Z,98561.25
2023-04-01T07:33:43.457Z,98562.02
2023-04-01T07:35:08.141Z,98563.23
2023-04-01T07:36:39.653Z,98562.22
2023-04-01T07:38:03.880Z,98561.17
2023-04-01T07:39:06.802Z,98566.10
2023-04-01T07:40:44.595Z,98560.18
2023-04-01T07:42:11.920Z,98561.39
2023-04-01T07:43:38.923Z,98559.24
2023-04-01T07:45:16.191Z,98560.71
2023-04-01T07:46:22.098Z,98559.92
2023-04-01T07:48:03.621Z,98560.35
2023-04-01T07:49:18.481Z,98563.81
2023-04-01T07:50:33.910Z,98565.60
2023-04-01T07:51:49.914Z,98572.49
2023-04-01T07:53:00.436Z,98576.32
2023-04-01T07:54:23.854Z,98574.53
2023-04-01T07:55:41.400Z,98575.00
2023-04-01T07:57:17.392Z,98576.06
2023-04-01T07:58:33.038Z,98575.77
2023-04-01T08:00:28.750Z,98573.68
2023-04-01T08:02:11.087Z,98577.30
2023-04-01T08:03:32.745Z,98578.09
2023-04-01T08:04:36.592Z,98579.98
2023-04-01T08:05:53.645Z,98576.77
2023-04-01T08:07:08.228Z,98576.17
2023-04-01T08:08:22.186Z,98576.15
2023-04-01T08:10:14.068Z,98575.91
2023-04-01T08:12:10.408Z,98581.92
2023-04-01T08:14:11.550Z,98585.19
2023-04-01T08:16:01.848Z,98585.63
2023-04-01T08:17:28.178Z,98587.54
2023-04-01T08:18:50.999Z,98588.88
2023-04-01T08:20:06.098Z,98590.40
2023-04-01T08:21:35.217Z,98589.30
2023-04-01T08:22:46.615Z,98591.00
2023-04-01T08:23:59.721Z,98592.91
2023-04-01T08:25:08.864Z,98590.29
2023-04-01T08:26:27.265Z,98587.02
2023-04-01T08:27:38.143Z,98588.45
2023-04-01T08:28:59.713Z,98586.13
2023-04-01T08:30:19.484Z,98583.88
2023-04-01T08:31:38.685Z,98589.77
2023-04-01T08:32:47.024Z,98588.73
2023-04-01T08:33:54.272Z,98589.32
2023-04-01T08:35:32.105Z,98592.14
2023-04-01T08:36:40.002Z,98591.64
2023-04-01T08:37:52.965Z,98589.40
2023-04-01T08:39:11.940Z,98589.02
2023-04-01T08:40:40.869Z,98590.21
2023-04-01T08:42:29.905Z,98594.23
2023-04-01T08:43:40.435Z,98592.70
2023-04-01T08:45:05.812Z,98594.16
2023-04-01T08:46:30.902Z,98591.30
2023-04-01T08:47:46.235Z,98595.29
2023-04-01T08:49:09.449Z,98595.61
2023-04-01T08:50:31.393Z,98597.19
2023-04-01T08:52:07.178Z,98597.83
2023-04-01T08:53:28.733Z,98598.74
2023-04-01T08:54:43.647Z,98599.96
2023-04-01T08:56:04.482Z,98598.02
2023-04-01T08:57:46.035Z,98599.46
2023-04-01T08:59:27.419Z,98602.32
2023-04-01T09:00:49.999Z,98604.70
2023-04-01T09:02:40.731Z,98602.37
2023-04-01T09:03:54.474Z,98600.41
2023-04-01T09:05:18.959Z,98604.92
2023-04-01T09:06:33.115Z,98602.45
2023-04-01T09:08:04.781Z,98605.98
2023-04-01T09:09:25.653Z,98602.14
2023-04-01T09:10:48.650Z,98605.20
2023-04-01T09:13:08.289Z,98614.06
2023-04-01T09:14:31.357Z,98608.52
2023-04-01T09:16:24.744Z,98607.60
2023-04-01T09:17:58.335Z,98608.37
2023-04-01T09:19:20.951Z,98608.91
2023-04-01T09:20:41.670Z,98610.67
2023-04-01T09:21:57.170Z,98614.34
2023-04-01T09:23:20.078Z,98614.23
2023-04-01T09:25:01.140Z,98614.41
2023-04-01T09:26:10.073Z,98614.99
2023-04-01T09:27:56.376Z,98619.41
2023-04-01T09:29:23.558Z,98622.81
2023-04-01T09:30:36.021Z,98622.23
2023-04-01T09:31:49.325Z,98625.60
2023-04-01T09:33:58.936Z,98621.66
2023-04-01T09:35:49.270Z,98622.27
2023-04-01T09:37:03.150Z,98622.11
2023-04-01T09:38:21.166Z,98620.42
2023-04-01T09:39:36.704Z,98622.21
2023-04-01T09:40:48.635Z,98620.86
2023-04-01T09:42:09.031Z,98622.68
2023-04-01T09:43:29.951Z,98617.64
2023-04-01T09:45:01.557Z,98621.84
2023-04-01T09:46:18.743Z,98621.58
2023-04-01T09:48:00.578Z,98621.08
2023-04-01T09:49:40.134Z,98623.88
2023-04-01T09:51:01.884Z,98620.73
2023-04-01T09:52:14.009Z,98621.48
2023-04-01T09:53:33.928Z,98620.58
2023-04-01T09:54:52.908Z,98626.36
2023-04-01T09:56:07.976Z,98626.92
2023-04-01T09:57:34.317Z,98624.85
2023-04-01T09:59:22.582Z,98625.35
2023-04-01T10:01:09.555Z,98628.05
2023-04-01T10:02:54.596Z,98623.22
2023-04-01T10:04:03.780Z,98630.00
2023-04-01T10:05:47.232Z,98636.86
2023-04-01T10:07:11.507Z,98633.04
2023-04-01T10:08:53.745Z,98630.09
2023-04-01T10:10:26.397Z,98629.08
2023-04-01T10:11:35.052Z,98630.56
2023-04-01T10:13:03.654Z,98632.89
2023-04-01T10:14:12.879Z,98636.92
2023-04-01T10:15:41.144Z,98636.17
2023-04-01T10:16:54.352Z,98635.83
2023-04-01T10:18:34.624Z,98636.70
2023-04-01T10:19:57.798Z,98639.30
2023-04-01T10:21:26.445Z,98634.95
2023-04-01T10:22:47.992Z,98637.41
2023-04-01T10:24:21.464Z,98639.77
2023-04-01T10:25:33.183Z,98638.66
2023-04-01T10:26:56.250Z,98638.41
2023-04-01T10:28:29.946Z,98640.27
2023-04-01T10:30:00.501Z,98637.64
2023-04-01T10:31:15.699Z,98636.96
2023-04-01T10:32:48.461Z,98636.83
2023-04-01T10:34:25.478Z,98639.58
2023-04-01T10:35:52.973Z,98637.84
2023-04-01T10:37:02.557Z,98639.84
2023-04-01T10:38:41.645Z,98641.75
2023-04-01T10:39:56.724Z,98640.05
2023-04-01T10:41:38.081Z,98639.40
2023-04-01T10:43:31.664Z,98636.94
2023-04-01T10:45:10.276Z,98640.38
2023-04-01T10:46:30.032Z,98634.37
2023-04-01T10:48:21.420Z,98631.23
2023-04-01T10:50:08.932Z,98630.89
2023-04-01T10:51:26.289Z,98632.55
2023-04-01T10:52:54.348Z,98632.52
2023-04-01T10:55:04.626Z,98632.16
2023-04-01T10:56:42.819Z,98631.29
2023-04-01T10:58:38.754Z,98630.99
2023-04-01T11:00:29.300Z,98632.60
2023-04-01T11:02:37.612Z,98633.91
2023-04-01T11:04:40.484Z,98636.29
2023-04-01T11:06:29.089Z,98639.54
2023-04-01T11:08:07.301Z,98639.69
2023-04-01T11:09:11.677Z,98643.73
2023-04-01T11:10:17.204Z,98647.39
2023-04-01T11:11:39.981Z,98645.23
2023-04-01T11:13:17.953Z,98639.29
2023-04-01T11:14:22.344Z,98640.53
2023-04-01T11:16:02.077Z,98645.59
2023-04-01T11:17:44.233Z,98642.58
2023-04-01T11:19:19.442Z,98639.44
2023-04-01T11:21:01.282Z,98638.25
2023-04-01T11:22:33.448Z,98642.84
2023-04-01T11:24:03.994Z,98646.64
2023-04-01T11:25:31.710Z,98638.73
2023-04-01T11:27:15.125Z,98640.48
2023-04-01T11:28:27.074Z,98637.96
2023-04-01T11:29:59.306Z,98645.73
2023-04-01T11:31:48.614Z,98641.63
2023-04-01T11:32:54.684Z,98638.75
2023-04-01T11:34:25.661Z,98642.38
2023-04-01T11:36:08.989Z,98640.64
2023-04-01T11:37:31.371Z,98639.21
2023-04-01T11:39:13.227Z,98635.84
2023-04-01T11:40:57.442Z,98636.32
2023-04-01T11:42:58.918Z,98637.95
2023-04-01T11:46:12.317Z,98640.20
2023-04-01T11:47:40.609Z,98637.01
2023-04-01T11:48:58.244Z,98639.29
2023-04-01T11:50:11.580Z,98641.02
2023-04-01T11:52:11.624Z,98639.23
2023-04-01T11:53:37.699Z,98645.09
2023-04-01T11:55:03.361Z,98644.08
2023-04-01T11:56:30.723Z,98641.39
2023-04-01T11:58:01.226Z,98646.02
2023-04-01T11:59:18.972Z,98643.77
2023-04-01T12:00:49.459Z,98644.09
2023-04-01T12:02:29.850Z,98645.73
2023-04-01T12:03:42.950Z,98643.45
2023-04-01T12:04:58.028Z,98642.10
2023-04-01T12:06:38.481Z,98646.02
2023-04-01T12:07:54.616Z,98645.59
2023-04-01T12:09:16.095Z,98644.16
2023-04-01T12:10:26.473Z,98648.04
2023-04-01T12:11:56.298Z,98649.54
2023-04-01T12:13:36.010Z,98645.97
2023-04-01T12:15:00.455Z,98647.17
2023-04-01T12:16:05.890Z,98646.66
2023-04-01T12:17:46.488Z,98647.25
2023-04-01T12:19:11.293Z,98647.48
2023-04-01T12:20:14.188Z,98648.23
2023-04-01T12:21:42.898Z,98651.61
2023-04-01T12:23:04.059Z,98649.95
2023-04-01T12:24:29.734Z,98657.80
2023-04-01T12:26:04.011Z,98659.93
2023-04-01T12:27:27.158Z,98652.27
2023-04-01T12:28:38.614Z,98652.38
2023-04-01T12:30:06.314Z,98653.96
2023-04-01T12:31:24.970Z,98651.46
2023-04-01T12:32:52.161Z,98655.71
2023-04-01T12:34:23.032Z,98653.69
2023-04-01T12:35:33.706Z,98654.92
2023-04-01T12:37:01.737Z,98656.85
2023-04-01T12:38:13.491Z,98655.59
2023-04-01T12:39:54.178Z,98655.03
2023-04-01T12:41:27.909Z,98659.53
2023-04-01T12:43:23.730Z,98668.17
2023-04-01T12:44:44.728Z,98670.80
2023-04-01T12:46:12.811Z,98670.61
2023-04-01T12:47:40.209Z,98669.80
2023-04-01T12:49:21.238Z,98668.66
2023-04-01T12:50:40.986Z,98669.69
2023-04-01T12:51:58.757Z,98670.26
2023-04-01T12:53:40.738Z,98665.73
2023-04-01T12:54:46.649Z,98669.61
2023-04-01T12:55:53.591Z,98672.20
2023-04-01T12:57:15.546Z,98668.54
2023-04-01T12:58:42.172Z,98665.86
2023-04-01T13:00:04.897Z,98667.83
2023-04-01T13:01:23.209Z,98671.96
2023-04-01T13:02:31.878Z,98671.41
2023-04-01T13:04:15.703Z,98670.09
2023-04-01T13:05:48.181Z,98672.16
2023-04-01T13:07:04.338Z,98671.14
2023-04-01T13:08:38.084Z,98670.05
2023-04-01T13:10:04.314Z,98673.09
2023-04-01T13:11:14.988Z,98674.46
2023-04-01T13:12:45.825Z,98670.48
2023-04-01T13:14:24.982Z,98674.02
2023-04-01T13:16:10.683Z,98675.96
2023-04-01T13:17:16.182Z,98675.05
2023-04-01T13:18:35.094Z,98680.27
2023-04-01T13:20:04.271Z,98680.70
2023-04-01T13:21:22.888Z,98680.13
2023-04-01T13:22:50.663Z,98683.96
2023-04-01T13:24:18.568Z,98684.36
2023-04-01T13:25:43.029Z,98686.77
2023-04-01T13:27:03.782Z,98690.46
2023-04-01T13:28:09.625Z,98690.98
2023-04-01T13:29:22.099Z,98693.55
2023-04-01T13:30:25.886Z,98690.17
2023-04-01T13:32:03.571Z,98696.25
2023-04-01T13:33:15.498Z,98695.23
2023-04-01T13:34:53.657Z,98693.12
2023-04-01T13:36:18.115Z,98693.23
2023-04-01T13:37:58.854Z,98694.44
2023-04-01T13:39:08.083Z,98697.21
2023-04-01T13:40:59.641Z,98692.71
2023-04-01T13:42:53.325Z,98689.83
2023-04-01T13:44:12.393Z,98691.89
2023-04-01T13:45:20.750Z,98696.54
2023-04-01T13:46:51.435Z,98695.45
2023-04-01T13:48:23.737Z,98698.01
2023-04-01T13:50:05.856Z,98704.81
2023-04-01T13:51:47.858Z,98700.77
2023-04-01T13:53:04.052Z,98700.17
2023-04-01T13:54:34.683Z,98704.89
2023-04-01T13:55:47.972Z,98714.85
2023-04-01T13:57:09.471Z,98708.94
2023-04-01T13:58:25.087Z,98710.41
2023-04-01T13:59:47.742Z,98713.34
2023-04-01T14:01:25.117Z,98711.16
2023-04-01T14:02:58.419Z,98714.45
2023-04-01T14:04:17.160Z,98720.55
2023-04-01T14:05:43.250Z,98724.06
2023-04-01T14:07:09.351Z,98726.68
2023-04-01T14:08:37.356Z,98726.41
2023-04-01T14:09:46.101Z,98730.98
2023-04-01T14:10:59.513Z,98730.48
2023-04-01T14:12:28.268Z,98735.06
2023-04-01T14:13:51.420Z,98737.02
2023-04-01T14:15:16.942Z,98736.90
2023-04-01T14:16:50.474Z,98735.11
2023-04-01T14:17:53.386Z,98736.15
2023-04-01T14:19:33.775Z,98741.13
2023-04-01T14:21:02.727Z,98737.61
2023-04-01T14:22:11.443Z,98738.70
2023-04-01T14:23:32.780Z,98737.16
2023-04-01T14:24:58.529Z,98738.77
2023-04-01T14:26:22.677Z,98740.57
2023-04-01T14:28:02.413Z,98738.02
2023-04-01T14:29:42.784Z,98740.10
2023-04-01T14:31:04.398Z,98742.14
2023-04-01T14:32:37.917Z,98740.33
2023-04-01T14:34:05.753Z,98745.55
2023-04-01T14:35:27.838Z,98747.14
2023-04-01T14:37:02.532Z,98748.09
2023-04-01T14:38:08.251Z,98751.01
2023-04-01T14:39:20.115Z,98755.80
2023-04-01T14:40:30.455Z,98758.16
2023-04-01T14:41:54.302Z,98758.72
2023-04-01T14:43:18.354Z,98759.36
2023-04-01T14:44:52.326Z,98759.90
2023-04-01T14:46:31.766Z,98765.39
2023-04-01T14:47:59.831Z,98765.73
2023-04-01T14:49:18.813Z,98766.36
2023-04-01T14:50:41.347Z,98770.30
2023-04-01T14:51:44.744Z,98773.39
2023-04-01T14:53:28.806Z,98786.81
2023-04-01T14:54:38.804Z,98782.92
2023-04-01T14:55:45.141Z,98781.52
2023-04-01T14:57:24.847Z,98781.23
2023-04-01T14:59:00.589Z,98782.36
2023-04-01T15:00:18.296Z,98788.63
2023-04-01T15:02:09.183Z,98790.69
2023-04-01T15:03:28.027Z,98801.76